createdAt,value
2023-03-25T00:02:24.161Z,75.23
2023-03-25T00:04:54.951Z,75.79
2023-03-25T00:07:22.820Z,75.60
2023-03-25T00:09:50.291Z,75.10
2023-03-25T00:12:19.083Z,74.74
2023-03-25T00:14:54.638Z,74.59
2023-03-25T00:17:23.485Z,74.70
2023-03-25T00:19:53.394Z,74.98
2023-03-25T00:22:20.753Z,75.03
2023-03-25T00:24:48.139Z,74.87
2023-03-25T00:27:17.584Z,74.02
2023-03-25T00:29:45.530Z,74.76
2023-03-25T00:32:14.159Z,74.44
2023-03-25T00:34:47.580Z,74.57
2023-03-25T00:37:21.774Z,74.42
2023-03-25T00:39:48.587Z,74.92
2023-03-25T00:42:26.354Z,75.04
2023-03-25T00:44:53.491Z,75.17
2023-03-25T00:47:21.862Z,75.21
2023-03-25T00:49:49.774Z,75.73
2023-03-25T00:52:16.656Z,75.62
2023-03-25T00:54:43.868Z,76.02
2023-03-25T00:57:10.664Z,76.51
2023-03-25T00:59:37.349Z,76.85
2023-03-25T01:02:06.815Z,76.67
2023-03-25T01:04:34.551Z,76.32
2023-03-25T01:07:01.677Z,76.64
2023-03-25T01:09:28.447Z,75.65
2023-03-25T01:11:55.556Z,75.96
2023-03-25T01:14:24.323Z,76.29
2023-03-25T01:16:50.961Z,76.25
2023-03-25T01:19:17.788Z,76.21
2023-03-25T01:21:45.319Z,76.71
2023-03-25T01:24:14.667Z,76.83
2023-03-25T01:26:43.789Z,76.73
2023-03-25T01:29:12.411Z,76.91
2023-03-25T01:31:39.194Z,77.67
2023-03-25T01:34:05.946Z,77.00
2023-03-25T01:36:32.636Z,76.84
2023-03-25T01:39:01.360Z,76.82
2023-03-25T01:41:42.234Z,77.41
2023-03-25T01:44:49.844Z,77.24
2023-03-25T01:47:17.324Z,76.96
2023-03-25T01:49:46.739Z,76.31
2023-03-25T01:52:21.329Z,77.34
2023-03-25T01:54:50.484Z,77.12
2023-03-25T01:57:20.543Z,77.07
2023-03-25T01:59:48.376Z,77.25
2023-03-25T02:02:18.753Z,77.24
2023-03-25T02:04:59.348Z,77.74
2023-03-25T02:07:32.710Z,77.00
2023-03-25T02:10:02.544Z,77.94
2023-03-25T02:12:29.313Z,77.74
2023-03-25T02:14:57.959Z,77.68
2023-03-25T02:18:36.282Z,77.74
2023-03-25T02:21:50.174Z,77.49
2023-03-25T02:24:53.934Z,77.06
2023-03-25T02:27:33.901Z,76.86
2023-03-25T02:30:41.522Z,76.89
2023-03-25T02:33:38.557Z,77.40
2023-03-25T02:36:35.335Z,77.08
2023-03-25T02:39:22.134Z,76.93
2023-03-25T02:42:21.505Z,75.95
2023-03-25T02:45:27.347Z,76.21
2023-03-25T02:48:19.552Z,76.19
2023-03-25T02:50:52.160Z,76.21
2023-03-25T02:53:39.948Z,75.94
2023-03-25T02:56:10.984Z,75.54
2023-03-25T02:58:40.229Z,75.65
2023-03-25T03:01:10.156Z,75.74
2023-03-25T03:03:37.111Z,76.51
2023-03-25T03:06:05.817Z,76.45
2023-03-25T03:09:04.091Z,76.85
2023-03-25T03:11:38.610Z,77.21
2023-03-25T03:14:34.237Z,77.56
2023-03-25T03:17:20.300Z,78.12
2023-03-25T03:19:58.097Z,78.56
2023-03-25T03:22:42.566Z,77.45
2023-03-25T03:25:30.943Z,77.28
2023-03-25T03:28:05.914Z,76.94
2023-03-25T03:30:48.216Z,76.93
2023-03-25T03:33:25.443Z,75.66
2023-03-25T03:36:05.156Z,75.14
2023-03-25T03:38:38.571Z,75.53
2023-03-25T03:41:09.588Z,75.08
2023-03-25T03:43:57.678Z,74.85
2023-03-25T03:46:38.841Z,75.11
2023-03-25T03:49:12.565Z,75.25
2023-03-25T03:51:51.868Z,75.27
2023-03-25T03:54:26.624Z,75.01
2023-03-25T03:57:03.334Z,74.84
2023-03-25T03:59:53.761Z,75.61
2023-03-25T04:02:28.405Z,75.10
2023-03-25T04:04:55.614Z,74.73
2023-03-25T04:07:38.741Z,75.45
2023-03-25T04:10:21.632Z,74.99
2023-03-25T04:12:51.041Z,74.48
2023-03-25T04:15:18.137Z,75.45
2023-03-25T04:17:45.300Z,75.21
2023-03-25T04:20:18.384Z,74.42
2023-03-25T04:22:45.530Z,74.55
2023-03-25T04:25:14.371Z,74.91
2023-03-25T04:27:41.121Z,75.74
2023-03-25T04:30:09.296Z,74.71
2023-03-25T04:32:36.054Z,74.87
2023-03-25T04:35:03.633Z,74.64
2023-03-25T04:37:33.815Z,73.61
2023-03-25T04:40:01.286Z,74.35
2023-03-25T04:42:32.949Z,72.66
2023-03-25T04:45:00.208Z,72.75
2023-03-25T04:47:27.738Z,72.69
2023-03-25T04:49:54.456Z,72.97
2023-03-25T04:52:21.238Z,72.31
2023-03-25T04:54:48.023Z,72.38
2023-03-25T04:57:15.315Z,71.78
2023-03-25T04:59:42.262Z,72.10
2023-03-25T05:02:13.606Z,71.37
2023-03-25T05:04:47.428Z,72.66
2023-03-25T05:07:16.459Z,71.84
2023-03-25T05:09:43.378Z,71.10
2023-03-25T05:12:11.427Z,70.89
2023-03-25T05:14:41.256Z,70.15
2023-03-25T05:17:07.896Z,69.79
2023-03-25T05:19:43.778Z,69.55
2023-03-25T05:22:10.918Z,69.37
2023-03-25T05:24:37.542Z,68.41
2023-03-25T05:27:04.171Z,68.87
2023-03-25T05:29:33.961Z,68.36
2023-03-25T05:32:00.811Z,68.48
2023-03-25T05:34:29.940Z,69.04
2023-03-25T05:36:56.994Z,68.02
2023-03-25T05:39:24.376Z,68.90
2023-03-25T05:41:52.528Z,66.85
2023-03-25T05:44:19.189Z,67.47
2023-03-25T05:46:45.811Z,67.80
2023-03-25T05:49:12.473Z,69.00
2023-03-25T05:51:39.178Z,68.29
2023-03-25T05:54:10.916Z,67.29
2023-03-25T05:56:38.409Z,67.76
2023-03-25T05:59:05.202Z,67.29
2023-03-25T06:01:34.104Z,68.30
2023-03-25T06:04:03.021Z,68.87
2023-03-25T06:06:32.281Z,68.43
2023-03-25T06:08:59.152Z,67.67
2023-03-25T06:11:25.980Z,67.96
2023-03-25T06:13:52.672Z,68.41
2023-03-25T06:16:21.878Z,68.04
2023-03-25T06:18:51.460Z,67.86
2023-03-25T06:21:19.775Z,68.03
2023-03-25T06:23:50.379Z,67.85
2023-03-25T06:26:17.529Z,68.44
2023-03-25T06:28:44.413Z,68.41
2023-03-25T06:31:16.993Z,67.28
2023-03-25T06:33:44.296Z,67.99
2023-03-25T06:36:12.531Z,67.20
2023-03-25T06:38:40.209Z,67.71
2023-03-25T06:41:07.491Z,67.70
2023-03-25T06:43:34.963Z,67.12
2023-03-25T06:46:01.713Z,66.95
2023-03-25T06:48:28.561Z,66.84
2023-03-25T06:50:55.391Z,68.10
2023-03-25T06:53:22.100Z,66.41
2023-03-25T06:55:49.087Z,67.09
2023-03-25T06:58:15.865Z,66.54
2023-03-25T07:00:43.060Z,66.58
2023-03-25T07:03:11.368Z,66.59
2023-03-25T07:05:38.166Z,66.54
2023-03-25T07:08:05.335Z,66.33
2023-03-25T07:10:32.334Z,65.75
2023-03-25T07:12:58.966Z,66.34
2023-03-25T07:15:26.001Z,65.35
2023-03-25T07:17:53.158Z,65.17
2023-03-25T07:20:19.910Z,63.81
2023-03-25T07:22:46.576Z,65.19
2023-03-25T07:25:13.221Z,64.11
2023-03-25T07:27:40.722Z,64.34
2023-03-25T07:30:08.285Z,63.45
2023-03-25T07:32:35.009Z,63.49
2023-03-25T07:35:01.731Z,63.16
2023-03-25T07:37:28.344Z,63.72
2023-03-25T07:39:55.037Z,64.01
2023-03-25T07:42:21.949Z,64.19
2023-03-25T07:44:48.618Z,63.61
2023-03-25T07:47:15.365Z,64.98
2023-03-25T07:49:42.259Z,64.12
2023-03-25T07:52:08.853Z,64.44
2023-03-25T07:54:36.084Z,64.12
2023-03-25T07:57:03.695Z,63.48
2023-03-25T07:59:30.350Z,64.05
2023-03-25T08:01:57.075Z,64.32
2023-03-25T08:04:23.731Z,64.06
2023-03-25T08:06:50.348Z,64.28
2023-03-25T08:09:17.038Z,64.83
2023-03-25T08:11:43.792Z,64.65
2023-03-25T08:14:10.527Z,63.60
2023-03-25T08:16:37.284Z,64.47
2023-03-25T08:19:04.020Z,63.91
2023-03-25T08:21:30.661Z,63.31
2023-03-25T08:24:04.591Z,64.04
2023-03-25T08:26:33.799Z,63.84
2023-03-25T08:29:02.639Z,63.09
2023-03-25T08:31:31.845Z,61.67
2023-03-25T08:34:02.632Z,62.94
2023-03-25T08:36:29.312Z,61.75
2023-03-25T08:38:55.966Z,61.24
2023-03-25T08:41:22.688Z,61.04
2023-03-25T08:43:50.203Z,61.36
2023-03-25T08:46:17.119Z,61.05
2023-03-25T08:48:44.549Z,59.66
2023-03-25T08:51:11.156Z,59.66
2023-03-25T08:53:37.842Z,59.27
2023-03-25T08:56:04.762Z,59.36
2023-03-25T08:58:31.329Z,59.01
2023-03-25T09:00:58.311Z,59.20
2023-03-25T09:03:27.041Z,59.47
2023-03-25T09:05:54.147Z,60.01
2023-03-25T09:08:21.173Z,58.32
2023-03-25T09:10:47.870Z,59.20
2023-03-25T09:13:14.692Z,60.71
2023-03-25T09:15:41.734Z,57.88
2023-03-25T09:18:08.954Z,58.99
2023-03-25T09:20:35.972Z,59.88
2023-03-25T09:23:02.564Z,58.04
2023-03-25T09:25:30.014Z,57.81
2023-03-25T09:27:56.633Z,58.10
2023-03-25T09:30:23.263Z,57.73
2023-03-25T09:32:49.912Z,56.94
2023-03-25T09:35:16.734Z,59.14
2023-03-25T09:37:43.742Z,58.39
2023-03-25T09:40:16.403Z,56.48
2023-03-25T09:43:08.465Z,55.81
2023-03-25T09:45:43.957Z,56.05
2023-03-25T09:48:38.665Z,56.09
2023-03-25T09:51:15.014Z,55.73
2023-03-25T09:54:25.386Z,54.08
2023-03-25T09:56:54.922Z,55.17
2023-03-25T09:59:24.636Z,53.63
2023-03-25T10:02:13.930Z,52.55
2023-03-25T10:05:12.608Z,54.13
2023-03-25T10:08:16.920Z,54.71
2023-03-25T10:11:14.731Z,54.35
2023-03-25T10:14:18.573Z,53.85
2023-03-25T10:17:18.428Z,53.50
2023-03-25T10:19:54.429Z,53.05
2023-03-25T10:22:36.596Z,51.80
2023-03-25T10:25:13.755Z,50.80
2023-03-25T10:27:47.968Z,50.96
2023-03-25T10:30:35.472Z,51.72
2023-03-25T10:33:15.439Z,51.19
2023-03-25T10:35:47.723Z,51.34
2023-03-25T10:38:24.256Z,52.28
2023-03-25T10:40:59.203Z,52.80
2023-03-25T10:43:32.473Z,52.61
2023-03-25T10:46:51.389Z,51.25
2023-03-25T10:49:22.706Z,49.94
2023-03-25T10:51:57.532Z,49.13
2023-03-25T10:54:31.887Z,49.03
2023-03-25T10:57:09.776Z,49.12
2023-03-25T10:59:51.521Z,48.91
2023-03-25T11:02:25.981Z,48.81
2023-03-25T11:04:57.315Z,49.16
2023-03-25T11:07:40.026Z,48.85
2023-03-25T11:10:34.317Z,48.78
2023-03-25T11:13:06.900Z,48.81
2023-03-25T11:15:38.568Z,49.92
2023-03-25T11:18:40.697Z,48.90
2023-03-25T11:21:13.470Z,50.62
2023-03-25T11:23:51.366Z,49.61
2023-03-25T11:26:24.058Z,51.60
2023-03-25T11:29:02.470Z,50.60
2023-03-25T11:31:35.187Z,50.30
2023-03-25T11:34:20.471Z,50.46
2023-03-25T11:36:59.289Z,50.51
2023-03-25T11:39:39.497Z,52.07
2023-03-25T11:42:20.032Z,49.71
2023-03-25T11:44:52.628Z,50.98
2023-03-25T11:47:25.857Z,50.93
2023-03-25T11:49:53.705Z,50.25
2023-03-25T11:52:24.649Z,51.06
2023-03-25T11:54:55.148Z,49.92
2023-03-25T11:57:29.562Z,50.88
2023-03-25T12:00:18.303Z,48.56
2023-03-25T12:02:45.300Z,49.84
2023-03-25T12:05:16.502Z,48.17
2023-03-25T12:07:45.150Z,48.77
2023-03-25T12:10:55.586Z,49.04
2023-03-25T12:13:56.144Z,49.28
2023-03-25T12:16:47.590Z,48.90
2023-03-25T12:19:26.389Z,50.71
2023-03-25T12:22:45.206Z,50.08
2023-03-25T12:25:56.768Z,48.92
2023-03-25T12:28:33.999Z,48.93
2023-03-25T12:31:58.891Z,49.84
2023-03-25T12:34:59.534Z,49.46
2023-03-25T12:37:49.357Z,49.41
2023-03-25T12:50:17.600Z,50.73
2023-03-25T12:53:21.778Z,49.97
2023-03-25T13:05:47.942Z,56.41
2023-03-25T13:08:28.009Z,57.97
2023-03-25T13:11:06.424Z,59.30
2023-03-25T13:13:34.846Z,55.85
2023-03-25T13:16:11.729Z,57.40
2023-03-25T13:18:48.302Z,55.85
2023-03-25T13:21:27.117Z,56.23
2023-03-25T13:24:12.697Z,53.95
2023-03-25T13:26:43.732Z,54.46
2023-03-25T13:29:34.425Z,54.45
2023-03-25T13:32:07.076Z,54.75
2023-03-25T13:34:45.566Z,54.57
2023-03-25T13:37:41.116Z,53.84
2023-03-25T13:40:36.386Z,52.70
2023-03-25T13:43:13.430Z,51.08
2023-03-25T13:45:55.058Z,51.82
2023-03-25T13:48:52.128Z,51.62
2023-03-25T13:51:18.940Z,52.13
2023-03-25T13:54:05.056Z,52.28
2023-03-25T13:57:05.375Z,51.98
2023-03-25T14:00:12.403Z,49.84
2023-03-25T14:03:23.685Z,51.42
2023-03-25T14:06:32.096Z,50.78
2023-03-25T14:09:30.120Z,52.38
2023-03-25T14:12:17.012Z,52.08
2023-03-25T14:15:01.864Z,52.85
2023-03-25T14:17:30.175Z,53.01
2023-03-25T14:19:59.897Z,53.00
2023-03-25T14:22:29.685Z,54.01
2023-03-25T14:24:56.646Z,54.98
2023-03-25T14:27:30.069Z,53.95
2023-03-25T14:30:20.788Z,52.13
2023-03-25T14:32:47.737Z,53.22
2023-03-25T14:35:53.529Z,54.73
2023-03-25T14:38:21.938Z,53.66
2023-03-25T14:41:02.684Z,53.46
2023-03-25T14:43:38.288Z,52.82
2023-03-25T14:46:35.341Z,53.46
2023-03-25T14:49:22.600Z,52.54
2023-03-25T14:51:57.815Z,51.69
2023-03-25T14:54:33.433Z,50.35
2023-03-25T14:57:17.691Z,48.23
2023-03-25T14:59:55.045Z,47.79
2023-03-25T15:02:24.222Z,48.46
2023-03-25T15:05:00.349Z,49.41
2023-03-25T15:07:51.592Z,48.48
2023-03-25T15:10:37.991Z,48.11
2023-03-25T15:13:19.963Z,47.55
2023-03-25T15:16:38.946Z,47.94
2023-03-25T15:19:27.993Z,48.35
2023-03-25T15:22:11.217Z,48.82
2023-03-25T15:24:40.581Z,49.19
2023-03-25T15:27:49.399Z,49.17
2023-03-25T15:31:02.414Z,49.61
2023-03-25T15:33:57.803Z,49.47
2023-03-25T15:36:45.728Z,49.54
2023-03-25T15:39:47.136Z,49.57
2023-03-25T15:42:58.816Z,50.05
2023-03-25T15:46:01.452Z,50.73
2023-03-25T15:49:02.292Z,50.34
2023-03-25T15:52:23.937Z,50.47
2023-03-25T15:54:54.231Z,49.75
2023-03-25T15:57:29.944Z,49.68
2023-03-25T16:00:13.676Z,49.59
2023-03-25T16:03:07.281Z,50.32
2023-03-25T16:05:38.344Z,49.67
2023-03-25T16:08:15.789Z,48.91
2023-03-25T16:10:44.711Z,49.26
2023-03-25T16:13:17.742Z,49.94
2023-03-25T16:15:45.556Z,49.90
2023-03-25T16:18:15.878Z,61.86
2023-03-25T16:20:43.393Z,70.66
2023-03-25T16:23:19.885Z,75.70
2023-03-25T16:25:48.870Z,78.34
2023-03-25T16:28:18.772Z,79.17
2023-03-25T16:30:51.387Z,80.10
2023-03-25T16:33:21.830Z,79.05
2023-03-25T16:36:01.386Z,78.13
2023-03-25T16:38:29.022Z,78.63
2023-03-25T16:41:11.699Z,78.55
2023-03-25T16:43:38.741Z,79.01
2023-03-25T16:46:07.531Z,79.46
2023-03-25T16:48:37.354Z,77.79
2023-03-25T16:51:36.162Z,77.54
2023-03-25T16:54:09.726Z,77.39
2023-03-25T16:56:39.986Z,77.19
2023-03-25T16:59:38.254Z,77.80
2023-03-25T17:02:32.585Z,77.92
2023-03-25T17:05:28.927Z,78.23
2023-03-25T17:08:04.075Z,77.35
2023-03-25T17:10:33.464Z,78.24
2023-03-25T17:13:08.591Z,77.46
2023-03-25T17:15:35.623Z,79.01
2023-03-25T17:18:06.116Z,76.45
2023-03-25T17:20:45.878Z,76.19
2023-03-25T17:23:27.261Z,76.97
2023-03-25T17:25:59.862Z,78.79
2023-03-25T17:28:43.175Z,78.72
2023-03-25T17:31:41.048Z,80.81
2023-03-25T17:34:14.972Z,82.56
2023-03-25T17:36:45.402Z,82.57
2023-03-25T17:39:19.828Z,80.98
2023-03-25T17:41:47.839Z,80.27
2023-03-25T17:44:18.532Z,79.68
2023-03-25T17:46:45.373Z,78.62
2023-03-25T17:49:19.688Z,79.54
2023-03-25T17:51:46.619Z,83.09
2023-03-25T17:54:14.525Z,83.74
2023-03-25T17:56:42.069Z,85.52
2023-03-25T17:59:20.307Z,87.75
2023-03-25T18:01:50.061Z,88.99
2023-03-25T18:04:17.379Z,88.08
2023-03-25T18:06:44.568Z,88.46
2023-03-25T18:09:23.457Z,89.06
2023-03-25T18:11:53.406Z,87.26
2023-03-25T18:14:21.128Z,86.38
2023-03-25T18:16:47.775Z,87.62
2023-03-25T18:19:23.544Z,85.99
2023-03-25T18:21:50.270Z,88.30
2023-03-25T18:24:17.101Z,86.73
2023-03-25T18:26:44.760Z,85.55
2023-03-25T18:29:17.138Z,85.24
2023-03-25T18:31:43.845Z,86.54
2023-03-25T18:34:12.985Z,85.77
2023-03-25T18:36:43.409Z,87.91
2023-03-25T18:39:14.984Z,91.32
2023-03-25T18:41:41.865Z,89.69
2023-03-25T18:44:08.815Z,90.72
2023-03-25T18:46:36.211Z,89.00
2023-03-25T18:49:03.677Z,88.55
2023-03-25T18:51:31.254Z,84.53
2023-03-25T18:53:57.871Z,84.29
2023-03-25T18:56:25.408Z,86.85
2023-03-25T18:58:52.946Z,89.02
2023-03-25T19:01:21.647Z,89.89
2023-03-25T19:03:50.554Z,91.86
2023-03-25T19:06:18.900Z,90.64
2023-03-25T19:08:47.377Z,90.43
2023-03-25T19:11:21.040Z,89.20
2023-03-25T19:13:50.504Z,88.21
2023-03-25T19:16:17.300Z,87.42
2023-03-25T19:18:43.979Z,86.84
2023-03-25T19:21:15.696Z,87.03
2023-03-25T19:23:43.008Z,85.90
2023-03-25T19:26:09.862Z,87.93
2023-03-25T19:28:36.581Z,89.13
2023-03-25T19:31:03.372Z,89.21
2023-03-25T19:33:31.553Z,89.83
2023-03-25T19:36:01.694Z,90.76
2023-03-25T19:38:29.739Z,91.60
2023-03-25T19:41:05.738Z,91.86
2023-03-25T19:43:32.732Z,92.42
2023-03-25T19:46:00.448Z,91.54
2023-03-25T19:48:29.700Z,92.32
2023-03-25T19:50:57.164Z,90.18
2023-03-25T19:53:24.835Z,90.45
2023-03-25T19:55:51.890Z,89.75
2023-03-25T19:58:20.417Z,88.26
2023-03-25T20:00:47.691Z,88.56
2023-03-25T20:03:14.566Z,89.16
2023-03-25T20:05:41.985Z,88.37
2023-03-25T20:08:09.501Z,88.17
2023-03-25T20:10:38.752Z,88.53
2023-03-25T20:13:05.892Z,88.82
2023-03-25T20:15:33.114Z,89.42
2023-03-25T20:17:59.819Z,87.80
2023-03-25T20:20:26.522Z,89.13
2023-03-25T20:22:53.147Z,88.72
2023-03-25T20:25:20.082Z,90.50
2023-03-25T20:27:47.227Z,89.32
2023-03-25T20:30:17.261Z,89.67
2023-03-25T20:32:47.291Z,89.96
2023-03-25T20:35:16.754Z,89.18
2023-03-25T20:37:45.630Z,89.86
2023-03-25T20:40:15.790Z,89.62
2023-03-25T20:42:44.283Z,88.06
2023-03-25T20:45:15.073Z,88.23
2023-03-25T20:47:42.452Z,87.80
2023-03-25T20:50:10.637Z,88.72
2023-03-25T20:52:38.009Z,88.62
2023-03-25T20:55:05.977Z,88.02
2023-03-25T20:57:32.936Z,87.15
2023-03-25T20:59:59.535Z,86.33
2023-03-25T21:02:27.149Z,86.86
2023-03-25T21:04:56.862Z,85.67
2023-03-25T21:07:27.792Z,86.25
2023-03-25T21:09:54.635Z,85.31
2023-03-25T21:12:27.094Z,85.84
2023-03-25T21:14:59.778Z,85.81
2023-03-25T21:17:27.917Z,85.30
2023-03-25T21:19:54.862Z,85.14
2023-03-25T21:22:21.984Z,84.32
2023-03-25T21:24:48.543Z,85.83
2023-03-25T21:27:17.405Z,86.51
2023-03-25T21:29:44.226Z,86.57
2023-03-25T21:32:11.060Z,85.73
2023-03-25T21:34:40.531Z,85.52
2023-03-25T21:37:07.185Z,85.67
2023-03-25T21:39:33.879Z,85.69
2023-03-25T21:42:00.575Z,86.09
2023-03-25T21:44:37.106Z,85.14
2023-03-25T21:47:08.428Z,85.57
2023-03-25T21:49:35.113Z,85.60
2023-03-25T21:52:02.018Z,84.68
2023-03-25T21:54:28.933Z,85.75
2023-03-25T21:56:55.737Z,85.00
2023-03-25T21:59:22.764Z,84.95
2023-03-25T22:01:49.446Z,85.16
2023-03-25T22:04:17.882Z,84.62
2023-03-25T22:06:44.591Z,84.27
2023-03-25T22:09:11.232Z,84.44
2023-03-25T22:11:37.906Z,83.23
2023-03-25T22:14:05.628Z,82.30
2023-03-25T22:16:32.871Z,81.39
2023-03-25T22:18:59.718Z,80.94
2023-03-25T22:21:29.722Z,80.87
2023-03-25T22:23:58.981Z,79.21
2023-03-25T22:26:27.346Z,78.47
2023-03-25T22:29:00.652Z,78.82
2023-03-25T22:31:32.549Z,79.04
2023-03-25T22:34:03.875Z,77.61
2023-03-25T22:36:32.106Z,77.44
2023-03-25T22:38:59.382Z,77.42
2023-03-25T22:41:26.750Z,77.07
2023-03-25T22:43:56.009Z,77.10
2023-03-25T22:46:23.481Z,76.84
2023-03-25T22:48:50.915Z,75.98
2023-03-25T22:51:20.259Z,75.29
2023-03-25T22:53:47.525Z,75.51
2023-03-25T22:56:14.433Z,74.74
2023-03-25T22:58:41.568Z,75.50
2023-03-25T23:01:22.449Z,74.62
2023-03-25T23:03:49.338Z,74.50
2023-03-25T23:06:16.550Z,75.05
2023-03-25T23:08:43.727Z,74.94
2023-03-25T23:11:18.476Z,74.56
2023-03-25T23:13:47.986Z,74.92
2023-03-25T23:16:17.425Z,75.82
2023-03-25T23:18:44.821Z,75.25
2023-03-25T23:21:13.924Z,74.46
2023-03-25T23:23:53.278Z,74.11
2023-03-25T23:26:34.875Z,75.01
2023-03-25T23:29:04.130Z,74.96
2023-03-25T23:31:34.026Z,74.08
2023-03-25T23:34:03.973Z,73.64
2023-03-25T23:36:34.157Z,73.85
2023-03-25T23:39:02.125Z,73.98
2023-03-25T23:41:29.611Z,73.40
2023-03-25T23:43:56.620Z,73.36
2023-03-25T23:46:25.404Z,74.33
2023-03-25T23:49:01.908Z,73.98
2023-03-25T23:51:31.275Z,74.56
2023-03-25T23:53:57.889Z,73.46
2023-03-25T23:56:24.986Z,73.22
2023-03-25T23:58:52.360Z,73.29
